RXA12O YMEN-YKII
Flight info
| Callsign | RXA12O |
|---|---|
| Flight time | N/A |
| Altitude | 8000 |
| Route | YKII/N0178F070 DCT KIIEA |
| Aircraft | C208/L-SDFGR/C |
Departure
| Time | 2026-04-19 06:08 |
|---|---|
| Airport | Melbourne Essendon Airport (YMEN) |
Arrival
| Time | N/A |
|---|---|
| Airport | King Island Airport (YKII) |
| Time | Latitude | Longitude | Altitude | Speed | Heading |
|---|---|---|---|---|---|
| 2026-04-19 05:52 | -37.72690 | 144.89840 | 268 ft | 0 kts | 316° |
| 2026-04-19 05:55 | -37.72685 | 144.89833 | 268 ft | 3 kts | 316° |
| 2026-04-19 05:56 | -37.72693 | 144.89839 | 268 ft | 7 kts | 15° |
| 2026-04-19 05:56 | -37.72698 | 144.89834 | 268 ft | 0 kts | 82° |
| 2026-04-19 06:03 | -37.72698 | 144.89841 | 268 ft | 4 kts | 98° |
| 2026-04-19 06:03 | -37.72729 | 144.89893 | 268 ft | 11 kts | 92° |
| 2026-04-19 06:04 | -37.72770 | 144.89964 | 265 ft | 12 kts | 85° |
| 2026-04-19 06:04 | -37.72693 | 144.89989 | 266 ft | 13 kts | 354° |
| 2026-04-19 06:04 | -37.72611 | 144.89982 | 270 ft | 11 kts | 357° |
| 2026-04-19 06:04 | -37.72542 | 144.89979 | 274 ft | 10 kts | 358° |
| 2026-04-19 06:05 | -37.72477 | 144.89976 | 276 ft | 10 kts | 358° |
| 2026-04-19 06:05 | -37.72405 | 144.89973 | 277 ft | 11 kts | 358° |
| 2026-04-19 06:05 | -37.72319 | 144.89970 | 279 ft | 16 kts | 351° |
| 2026-04-19 06:05 | -37.72179 | 144.89929 | 285 ft | 25 kts | 355° |
| 2026-04-19 06:06 | -37.72053 | 144.89957 | 289 ft | 13 kts | 76° |
| 2026-04-19 06:06 | -37.72051 | 144.89977 | 291 ft | 0 kts | 87° |
| 2026-04-19 06:07 | -37.72056 | 144.90047 | 291 ft | 23 kts | 120° |
| 2026-04-19 06:07 | -37.72240 | 144.90086 | 284 ft | 52 kts | 179° |
| 2026-04-19 06:07 | -37.72837 | 144.90105 | 380 ft | 105 kts | 175° |
| 2026-04-19 06:07 | -37.73626 | 144.90286 | 472 ft | 130 kts | 166° |
| 2026-04-19 06:08 | -37.74558 | 144.90544 | 511 ft | 141 kts | 166° |
| 2026-04-19 06:08 | -37.75486 | 144.90818 | 793 ft | 134 kts | 165° |
| 2026-04-19 06:08 | -37.76382 | 144.91100 | 1097 ft | 130 kts | 165° |
| 2026-04-19 06:08 | -37.77234 | 144.91389 | 1536 ft | 123 kts | 166° |
| 2026-04-19 06:09 | -37.78040 | 144.91689 | 1989 ft | 118 kts | 165° |
| 2026-04-19 06:09 | -37.78805 | 144.92006 | 2437 ft | 113 kts | 165° |
| 2026-04-19 06:09 | -37.79525 | 144.92340 | 2878 ft | 109 kts | 163° |
| 2026-04-19 06:09 | -37.80228 | 144.92707 | 3214 ft | 117 kts | 160° |
| 2026-04-19 06:10 | -37.81067 | 144.93162 | 3300 ft | 137 kts | 159° |
| 2026-04-19 06:10 | -37.81944 | 144.93649 | 3550 ft | 138 kts | 159° |
| 2026-04-19 06:10 | -37.82828 | 144.94156 | 3794 ft | 140 kts | 159° |
| 2026-04-19 06:10 | -37.83708 | 144.94678 | 4032 ft | 140 kts | 158° |
| 2026-04-19 06:11 | -37.84586 | 144.95214 | 4290 ft | 141 kts | 157° |
| 2026-04-19 06:11 | -37.85467 | 144.95767 | 4537 ft | 141 kts | 157° |
| 2026-04-19 06:11 | -37.86323 | 144.96320 | 4790 ft | 133 kts | 157° |
| 2026-04-19 06:12 | -37.87689 | 144.97517 | 5140 ft | 127 kts | 118° |
| 2026-04-19 06:12 | -37.87641 | 144.98770 | 4745 ft | 165 kts | 68° |
| 2026-04-19 06:12 | -37.86798 | 144.99807 | 4240 ft | 175 kts | 22° |
| 2026-04-19 06:12 | -37.85682 | 144.99962 | 4198 ft | 151 kts | 1° |